Time;durP1;ratioP1;P1;durP2;ratioP2;P2;SDS_P1;SDS_P2;PMS_P1;PMS_P2;Temp;Humidity;BMP_temperature;BMP_pressure;BME280_temperature;BME280_humidity;BME280_pressure;Samples;Min_cycle;Max_cycle;Signal;HPM_P1;HPM_P2
2021/08/09 00:01:36;;;;;;;5.30;2.53;;;14.70;99.90;;;;;;5011734;28;20179;-50
2021/08/09 00:04:03;;;;;;;2.70;2.10;;;14.80;99.90;;;;;;5010289;28;20572;-48
2021/08/09 00:06:29;;;;;;;4.43;2.58;;;14.50;99.90;;;;;;5011182;28;20453;-48
2021/08/09 00:08:55;;;;;;;2.40;2.13;;;14.70;99.90;;;;;;5009440;28;20227;-48
2021/08/09 00:11:21;;;;;;;5.00;2.50;;;14.60;99.90;;;;;;5010097;28;20203;-49
2021/08/09 00:13:47;;;;;;;4.77;2.30;;;14.70;99.90;;;;;;5009454;28;20492;-49
2021/08/09 00:16:13;;;;;;;2.20;2.05;;;14.60;99.90;;;;;;5007909;28;20234;-49
2021/08/09 00:18:42;;;;;;;3.53;2.42;;;14.50;99.90;;;;;;4998881;28;20267;-49
2021/08/09 00:21:08;;;;;;;2.50;1.90;;;14.80;99.90;;;;;;5006858;28;20182;-49
2021/08/09 00:23:34;;;;;;;2.38;2.17;;;14.80;99.90;;;;;;5006875;28;20184;-49
2021/08/09 00:25:59;;;;;;;5.63;2.17;;;14.70;99.90;;;;;;5004408;28;20203;-49
2021/08/09 00:28:25;;;;;;;2.00;1.90;;;14.80;99.90;;;;;;5006918;28;20175;-49
2021/08/09 00:30:52;;;;;;;3.30;1.90;;;14.80;99.90;;;;;;5006392;28;20207;-49
2021/08/09 00:33:17;;;;;;;6.53;2.53;;;14.50;99.90;;;;;;5001136;28;20526;-49
2021/08/09 00:35:43;;;;;;;2.90;2.40;;;14.70;99.90;;;;;;4999763;28;20207;-48
2021/08/09 00:38:09;;;;;;;2.90;2.20;;;14.70;99.90;;;;;;5001747;28;20655;-48
2021/08/09 00:40:34;;;;;;;3.10;2.20;;;14.70;99.90;;;;;;5002291;28;20187;-49
2021/08/09 00:43:00;;;;;;;1.87;1.77;;;14.80;99.90;;;;;;5007598;28;20183;-48
2021/08/09 00:45:27;;;;;;;2.73;2.30;;;14.60;99.90;;;;;;4997343;28;20203;-49
2021/08/09 00:47:53;;;;;;;3.10;1.65;;;14.70;99.90;;;;;;5001472;28;20551;-49
2021/08/09 00:50:19;;;;;;;1.97;1.77;;;14.80;99.90;;;;;;4996881;28;20680;-49
2021/08/09 00:52:45;;;;;;;3.20;2.23;;;14.90;99.90;;;;;;4997132;28;20270;-49
2021/08/09 00:55:11;;;;;;;2.53;2.22;;;14.60;99.90;;;;;;5004623;28;20219;-49
2021/08/09 00:57:38;;;;;;;3.35;2.40;;;14.50;99.90;;;;;;5002751;28;20180;-48
2021/08/09 01:00:05;;;;;;;2.97;1.70;;;14.50;99.90;;;;;;4997521;28;20206;-49
2021/08/09 01:02:31;;;;;;;2.45;2.25;;;14.50;99.90;;;;;;5001410;28;20187;-48
2021/08/09 01:05:00;;;;;;;2.08;1.88;;;14.80;99.90;;;;;;4999658;28;20235;-48
2021/08/09 01:07:30;;;;;;;2.45;2.00;;;14.70;99.90;;;;;;4998625;28;20597;-49
2021/08/09 01:10:27;;;;;;;2.33;2.13;;;14.80;99.90;;;;;;5003996;28;20206;-49
2021/08/09 01:13:26;;;;;;;5.15;2.40;;;14.60;99.90;;;;;;4998336;28;20199;-48
2021/08/09 01:16:01;;;;;;;4.00;2.03;;;14.80;99.90;;;;;;4997325;28;20250;-49
2021/08/09 01:18:30;;;;;;;2.25;2.00;;;14.90;99.90;;;;;;5000237;28;20190;-49
2021/08/09 01:20:59;;;;;;;3.65;2.15;;;14.90;99.90;;;;;;5003676;28;20183;-49
2021/08/09 01:23:45;;;;;;;2.90;1.90;;;14.60;99.90;;;;;;5001292;28;20645;-49
2021/08/09 01:26:35;;;;;;;3.42;2.10;;;14.70;99.90;;;;;;4998172;28;20214;-50
2021/08/09 01:29:03;;;;;;;1.92;1.80;;;14.90;99.90;;;;;;4993929;28;20665;-49
2021/08/09 01:31:36;;;;;;;2.05;1.85;;;14.60;99.90;;;;;;4999491;28;20242;-49
2021/08/09 01:34:02;;;;;;;2.30;2.10;;;14.60;99.90;;;;;;4992172;28;20203;-49
2021/08/09 01:36:30;;;;;;;3.50;1.80;;;14.70;99.90;;;;;;5004115;28;20207;-49
2021/08/09 01:38:57;;;;;;;5.65;2.25;;;14.60;99.90;;;;;;5000023;28;20718;-49
2021/08/09 01:41:25;;;;;;;2.60;1.95;;;14.50;99.90;;;;;;5000686;28;20187;-51
2021/08/09 01:43:53;;;;;;;2.72;1.90;;;14.60;99.90;;;;;;5007352;28;20175;-50
2021/08/09 01:46:19;;;;;;;3.78;1.80;;;14.50;99.90;;;;;;5003115;28;20200;-49
2021/08/09 01:48:46;;;;;;;2.88;1.67;;;14.40;99.90;;;;;;5004250;28;20698;-50
2021/08/09 01:51:13;;;;;;;2.72;2.00;;;14.30;99.90;;;;;;5002503;28;20576;-50
2021/08/09 01:53:40;;;;;;;3.97;2.10;;;14.20;99.90;;;;;;5005286;28;20179;-49
2021/08/09 01:56:07;;;;;;;1.95;1.75;;;14.50;99.90;;;;;;5005790;28;20245;-50
2021/08/09 01:58:33;;;;;;;2.65;1.70;;;14.40;99.90;;;;;;5009034;28;20178;-49
2021/08/09 02:00:58;;;;;;;2.30;2.10;;;14.30;99.90;;;;;;5001058;28;20179;-50
2021/08/09 02:03:24;;;;;;;3.47;2.03;;;14.40;99.90;;;;;;5006202;28;20195;-50
2021/08/09 02:05:50;;;;;;;3.00;2.20;;;14.60;99.90;;;;;;5009093;28;20688;-49
2021/08/09 02:08:15;;;;;;;3.67;2.20;;;14.50;99.90;;;;;;5011103;28;20203;-49
2021/08/09 02:10:42;;;;;;;4.17;2.20;;;14.40;99.90;;;;;;4996407;28;20222;-50
2021/08/09 02:13:11;;;;;;;2.90;2.60;;;14.30;99.90;;;;;;4998270;28;20183;-50
2021/08/09 02:16:00;;;;;;;2.80;1.75;;;14.40;99.90;;;;;;4995758;28;20284;-51
2021/08/09 02:18:45;;;;;;;3.42;1.80;;;14.30;99.90;;;;;;4995313;28;20179;-50
2021/08/09 02:21:15;;;;;;;1.70;1.60;;;14.30;99.90;;;;;;4996792;28;20205;-50
2021/08/09 02:23:47;;;;;;;1.83;1.70;;;14.40;99.90;;;;;;4998232;28;20322;-50
2021/08/09 02:26:36;;;;;;;2.50;2.00;;;14.50;99.90;;;;;;5002574;28;20198;-51
2021/08/09 02:29:12;;;;;;;4.05;2.25;;;14.30;99.90;;;;;;4995929;28;20189;-51
2021/08/09 02:31:42;;;;;;;2.95;2.10;;;14.20;99.90;;;;;;4996312;28;20773;-50
2021/08/09 02:34:10;;;;;;;2.92;1.98;;;14.00;99.90;;;;;;4993761;28;20543;-51
2021/08/09 02:36:36;;;;;;;5.90;1.83;;;14.30;99.90;;;;;;5001487;28;20220;-49
2021/08/09 02:39:02;;;;;;;3.20;2.30;;;14.20;99.90;;;;;;4999597;28;20194;-50
2021/08/09 02:41:29;;;;;;;2.08;1.88;;;14.20;99.90;;;;;;4997906;28;20179;-51
2021/08/09 02:43:55;;;;;;;2.30;2.10;;;14.30;99.90;;;;;;5001737;28;20602;-51
2021/08/09 02:46:21;;;;;;;2.03;1.83;;;14.30;99.90;;;;;;4994652;28;20344;-50
2021/08/09 02:48:50;;;;;;;2.17;1.83;;;14.30;99.90;;;;;;4998832;28;20454;-50
2021/08/09 02:51:19;;;;;;;2.70;2.22;;;14.10;99.90;;;;;;4992043;28;20215;-51
2021/08/09 02:53:49;;;;;;;3.03;1.85;;;14.30;99.90;;;;;;4998093;28;20200;-50
2021/08/09 02:56:16;;;;;;;3.05;2.00;;;14.20;99.90;;;;;;5006000;28;20543;-50
2021/08/09 02:58:42;;;;;;;2.30;1.98;;;14.00;99.90;;;;;;4994256;28;20657;-49
2021/08/09 03:01:09;;;;;;;2.90;2.03;;;14.10;99.90;;;;;;5007947;28;20179;-50
2021/08/09 03:03:37;;;;;;;2.25;1.80;;;14.20;99.90;;;;;;4997625;28;20269;-49
2021/08/09 03:06:06;;;;;;;2.83;2.60;;;14.30;99.90;;;;;;5003927;28;20572;-50
2021/08/09 03:08:31;;;;;;;1.95;1.80;;;14.10;99.90;;;;;;4997982;28;20191;-51
2021/08/09 03:10:58;;;;;;;3.47;2.07;;;14.10;99.90;;;;;;5004699;28;20229;-48
2021/08/09 03:13:24;;;;;;;2.13;1.92;;;14.20;99.90;;;;;;4999852;28;20436;-50
2021/08/09 03:15:51;;;;;;;2.40;1.80;;;14.20;99.90;;;;;;5002409;28;20203;-50
2021/08/09 03:18:17;;;;;;;2.97;2.30;;;14.00;99.90;;;;;;4999136;28;20183;-50
2021/08/09 03:20:43;;;;;;;3.90;1.77;;;13.80;99.90;;;;;;4999193;28;20186;-50
2021/08/09 03:23:09;;;;;;;2.43;2.10;;;13.90;99.90;;;;;;5004353;28;20224;-50
2021/08/09 03:25:36;;;;;;;2.20;2.00;;;14.00;99.90;;;;;;5001847;28;20485;-50
2021/08/09 03:28:02;;;;;;;3.15;2.45;;;13.90;99.90;;;;;;5005758;28;20520;-49
2021/08/09 03:30:28;;;;;;;5.93;2.13;;;13.80;99.90;;;;;;4997585;28;20199;-49
2021/08/09 03:32:55;;;;;;;5.33;2.00;;;13.80;99.90;;;;;;5002884;28;20214;-51
2021/08/09 03:35:22;;;;;;;2.33;2.00;;;13.70;99.90;;;;;;5002218;28;20556;-49
2021/08/09 03:37:48;;;;;;;2.80;2.20;;;13.80;99.90;;;;;;5005789;28;20186;-49
2021/08/09 03:40:14;;;;;;;3.85;2.30;;;13.60;99.90;;;;;;5004315;28;20711;-49
2021/08/09 03:42:40;;;;;;;2.17;1.70;;;13.80;99.90;;;;;;5006890;28;20191;-48
2021/08/09 03:45:06;;;;;;;3.20;2.00;;;13.80;99.90;;;;;;5002456;28;20259;-50
2021/08/09 03:47:32;;;;;;;2.72;2.50;;;14.00;99.90;;;;;;5001778;28;20858;-51
2021/08/09 03:49:58;;;;;;;3.67;2.20;;;13.80;99.90;;;;;;5003292;28;20205;-49
2021/08/09 03:52:24;;;;;;;2.30;2.10;;;13.50;99.90;;;;;;4999717;28;20466;-50
2021/08/09 03:54:50;;;;;;;3.13;2.10;;;13.70;99.90;;;;;;5011371;28;20210;-49
2021/08/09 03:57:15;;;;;;;2.20;2.10;;;13.70;99.90;;;;;;5006180;28;20195;-50
2021/08/09 03:59:41;;;;;;;4.07;2.10;;;13.80;99.90;;;;;;5004757;28;20279;-49
2021/08/09 04:02:09;;;;;;;2.13;1.93;;;13.90;99.90;;;;;;5002236;28;20207;-49
2021/08/09 04:04:35;;;;;;;5.35;2.50;;;13.90;99.90;;;;;;5003030;28;20176;-50
2021/08/09 04:07:00;;;;;;;2.43;2.23;;;14.00;99.90;;;;;;5000603;28;20217;-49
2021/08/09 04:09:26;;;;;;;5.13;2.00;;;13.80;99.90;;;;;;5006006;28;20187;-49
2021/08/09 04:11:52;;;;;;;3.57;2.13;;;13.90;99.90;;;;;;5001523;28;20245;-50
2021/08/09 04:14:17;;;;;;;5.03;2.60;;;13.80;99.90;;;;;;5005424;28;20225;-50
2021/08/09 04:16:43;;;;;;;2.30;2.10;;;13.90;99.90;;;;;;5009053;28;20199;-49
2021/08/09 04:19:09;;;;;;;2.03;1.90;;;14.00;99.90;;;;;;5003835;28;20198;-50
2021/08/09 04:21:34;;;;;;;2.17;1.97;;;14.00;99.90;;;;;;5005930;28;20528;-50
2021/08/09 04:24:00;;;;;;;2.93;1.93;;;14.00;99.90;;;;;;4998412;28;20192;-50
2021/08/09 04:26:26;;;;;;;2.60;2.10;;;13.80;99.90;;;;;;5000934;28;20224;-49
2021/08/09 04:28:51;;;;;;;2.20;1.63;;;13.90;99.90;;;;;;5004315;28;20217;-50
2021/08/09 04:31:18;;;;;;;2.43;2.23;;;13.80;99.90;;;;;;5008249;28;20499;-49
2021/08/09 04:33:45;;;;;;;2.15;1.90;;;13.70;99.90;;;;;;5004753;28;20273;-49
2021/08/09 04:36:11;;;;;;;3.65;2.42;;;13.80;99.90;;;;;;5003620;28;20793;-49
2021/08/09 04:38:38;;;;;;;2.60;1.85;;;13.70;99.90;;;;;;5000170;28;20555;-49
2021/08/09 04:41:07;;;;;;;2.00;1.80;;;14.00;99.90;;;;;;5000266;28;20183;-49
2021/08/09 04:43:37;;;;;;;2.10;1.90;;;14.00;99.90;;;;;;5005737;28;20570;-49
2021/08/09 04:46:04;;;;;;;3.40;2.13;;;14.00;99.90;;;;;;5001380;28;20206;-49
2021/08/09 04:48:30;;;;;;;2.55;1.95;;;14.00;99.90;;;;;;4997324;28;20211;-49
2021/08/09 04:50:55;;;;;;;4.03;2.05;;;14.00;99.90;;;;;;5005382;28;20213;-49
2021/08/09 04:53:21;;;;;;;4.50;2.00;;;14.10;99.90;;;;;;4999260;28;20195;-50
2021/08/09 04:55:47;;;;;;;2.60;2.23;;;14.30;99.90;;;;;;4999992;28;20195;-50
2021/08/09 04:58:13;;;;;;;3.77;2.60;;;14.40;99.90;;;;;;4998738;28;20229;-50
2021/08/09 05:00:38;;;;;;;3.00;2.20;;;14.40;99.90;;;;;;5000593;28;20192;-50
2021/08/09 05:03:04;;;;;;;2.07;1.90;;;14.50;99.90;;;;;;4997950;28;20531;-48
2021/08/09 05:05:30;;;;;;;2.43;2.23;;;14.40;99.90;;;;;;4997367;28;20200;-49
2021/08/09 05:07:56;;;;;;;2.40;1.80;;;14.30;99.90;;;;;;5001880;28;20441;-49
2021/08/09 05:10:26;;;;;;;4.05;2.40;;;14.50;99.90;;;;;;4997593;28;20302;-50
2021/08/09 05:12:52;;;;;;;3.03;2.75;;;14.60;99.90;;;;;;5007292;28;20270;-50
2021/08/09 05:15:21;;;;;;;2.85;2.65;;;14.70;99.90;;;;;;5008653;28;20694;-50
2021/08/09 05:17:47;;;;;;;3.47;2.10;;;14.80;99.90;;;;;;5006614;28;20632;-49
2021/08/09 05:20:13;;;;;;;2.33;1.93;;;14.80;99.90;;;;;;4998940;28;20188;-49
2021/08/09 05:22:39;;;;;;;2.40;2.20;;;14.60;99.90;;;;;;5003664;28;20206;-49
2021/08/09 05:25:09;;;;;;;5.07;2.43;;;14.50;99.90;;;;;;4999316;28;20660;-51
2021/08/09 05:27:35;;;;;;;2.50;2.30;;;14.80;99.90;;;;;;4997811;28;20873;-50
2021/08/09 05:30:01;;;;;;;4.30;2.85;;;14.90;99.90;;;;;;4999502;28;20199;-49
2021/08/09 05:32:29;;;;;;;3.23;2.90;;;14.60;99.90;;;;;;5002480;28;20234;-49
2021/08/09 05:34:56;;;;;;;2.15;1.90;;;14.70;99.90;;;;;;4996698;28;20422;-49
2021/08/09 05:37:22;;;;;;;8.75;2.42;;;14.70;99.90;;;;;;5004438;28;20178;-48
2021/08/09 05:39:48;;;;;;;2.20;2.00;;;14.80;99.90;;;;;;5002681;28;20996;-48
2021/08/09 05:42:13;;;;;;;2.77;2.23;;;15.00;99.90;;;;;;5002647;28;20188;-48
2021/08/09 05:44:39;;;;;;;3.03;2.47;;;15.10;99.90;;;;;;5004109;28;20220;-47
2021/08/09 05:47:05;;;;;;;3.60;2.73;;;15.20;99.90;;;;;;5003170;28;20204;-47
2021/08/09 05:49:30;;;;;;;3.00;2.70;;;15.30;99.90;;;;;;4998687;28;20201;-48
2021/08/09 05:51:57;;;;;;;2.95;2.22;;;15.40;99.90;;;;;;5004455;28;20454;-48
2021/08/09 05:54:23;;;;;;;2.70;2.20;;;15.50;99.90;;;;;;4999696;28;20190;-48
2021/08/09 05:56:49;;;;;;;7.27;2.63;;;15.30;99.90;;;;;;5002658;28;20742;-49
2021/08/09 05:59:14;;;;;;;3.30;2.70;;;15.70;99.90;;;;;;5005145;28;20237;-49
2021/08/09 06:01:40;;;;;;;4.13;2.20;;;15.80;99.90;;;;;;4996725;28;20209;-48
2021/08/09 06:04:06;;;;;;;3.27;2.40;;;15.80;99.90;;;;;;5002462;28;20294;-49
2021/08/09 06:06:31;;;;;;;8.10;2.13;;;15.90;99.90;;;;;;4996877;28;20203;-49
2021/08/09 06:08:57;;;;;;;3.77;2.63;;;16.00;99.90;;;;;;4998066;28;20266;-49
2021/08/09 06:11:23;;;;;;;3.63;2.37;;;16.30;99.90;;;;;;4996160;28;20211;-48
2021/08/09 06:13:48;;;;;;;2.77;2.20;;;16.40;99.90;;;;;;4996536;28;20191;-48
2021/08/09 06:16:14;;;;;;;4.03;2.20;;;16.40;99.90;;;;;;5001511;28;20266;-50
2021/08/09 06:18:40;;;;;;;3.30;1.97;;;16.50;99.90;;;;;;5001401;28;20447;-49
2021/08/09 06:21:06;;;;;;;3.27;2.00;;;17.00;99.90;;;;;;4996681;28;20521;-48
2021/08/09 06:23:32;;;;;;;4.22;2.00;;;16.80;99.90;;;;;;4996919;28;20295;-48
2021/08/09 06:25:58;;;;;;;1.90;1.80;;;17.20;99.90;;;;;;4996271;28;20210;-50
2021/08/09 06:28:24;;;;;;;2.47;2.27;;;17.10;99.90;;;;;;5001098;28;20652;-50
2021/08/09 06:30:49;;;;;;;2.70;1.70;;;17.50;99.90;;;;;;5005321;28;21040;-48
2021/08/09 06:33:15;;;;;;;1.93;1.83;;;17.50;99.90;;;;;;4996137;28;20522;-48
2021/08/09 06:35:41;;;;;;;3.38;1.80;;;17.20;99.90;;;;;;5004852;28;20198;-47
2021/08/09 06:38:08;;;;;;;5.00;2.03;;;17.60;99.90;;;;;;4999358;28;20187;-50
2021/08/09 06:40:35;;;;;;;2.65;1.65;;;17.50;99.90;;;;;;5007546;28;20194;-50
2021/08/09 06:43:01;;;;;;;2.17;1.98;;;17.90;99.90;;;;;;5000955;28;20183;-50
2021/08/09 06:45:27;;;;;;;2.30;2.00;;;17.90;99.90;;;;;;5004157;28;20203;-50
2021/08/09 06:47:53;;;;;;;4.47;1.87;;;18.00;99.90;;;;;;5005028;28;20191;-49
2021/08/09 06:50:18;;;;;;;2.40;1.87;;;18.10;99.90;;;;;;5010781;28;20460;-50
2021/08/09 06:52:44;;;;;;;2.00;1.73;;;18.30;99.50;;;;;;5002594;28;20477;-49
2021/08/09 06:55:10;;;;;;;2.33;2.00;;;18.40;99.20;;;;;;5003669;28;20188;-50
2021/08/09 06:57:36;;;;;;;2.17;1.80;;;18.60;99.20;;;;;;4998723;28;20441;-50
2021/08/09 07:00:03;;;;;;;6.00;1.77;;;18.60;98.40;;;;;;5001948;28;20667;-51
2021/08/09 07:02:29;;;;;;;2.85;1.80;;;18.70;98.00;;;;;;5003984;28;20258;-51
2021/08/09 07:04:54;;;;;;;4.37;2.00;;;18.80;98.00;;;;;;5004344;28;20207;-50
2021/08/09 07:07:20;;;;;;;2.47;1.80;;;19.00;97.80;;;;;;5002737;28;20206;-52
2021/08/09 07:09:46;;;;;;;2.43;1.97;;;19.50;97.30;;;;;;5010558;28;20731;-51
2021/08/09 07:12:11;;;;;;;3.33;2.57;;;20.80;95.80;;;;;;5000933;28;20649;-51
2021/08/09 07:14:37;;;;;;;2.27;1.83;;;22.20;93.40;;;;;;5005591;28;20179;-50
2021/08/09 07:17:03;;;;;;;2.40;1.53;;;24.10;89.90;;;;;;5006221;28;20237;-51
2021/08/09 07:19:29;;;;;;;1.70;1.60;;;25.60;83.70;;;;;;5007661;28;20189;-52
2021/08/09 07:21:55;;;;;;;2.73;1.60;;;26.90;77.50;;;;;;5017448;28;20538;-51
2021/08/09 07:24:21;;;;;;;1.70;1.50;;;28.60;70.60;;;;;;5008109;28;20184;-51
2021/08/09 07:26:46;;;;;;;2.37;1.50;;;29.40;64.80;;;;;;5006190;28;20470;-50
2021/08/09 07:29:12;;;;;;;3.30;1.60;;;30.00;61.00;;;;;;5003455;28;20599;-49
2021/08/09 07:31:37;;;;;;;5.03;1.67;;;30.80;59.30;;;;;;5002692;28;20215;-52
2021/08/09 07:34:03;;;;;;;4.80;4.30;;;31.40;56.70;;;;;;5002793;28;20183;-52
2021/08/09 07:36:29;;;;;;;4.63;2.73;;;31.50;56.90;;;;;;4998366;28;20279;-51
2021/08/09 07:38:55;;;;;;;4.70;1.60;;;32.40;54.40;;;;;;5008009;28;20187;-51
2021/08/09 07:41:20;;;;;;;1.30;1.20;;;32.30;52.60;;;;;;5005911;28;20190;-52
2021/08/09 07:43:48;;;;;;;2.57;1.80;;;33.00;52.00;;;;;;5007480;28;20187;-52
2021/08/09 07:46:14;;;;;;;1.87;1.57;;;33.10;50.10;;;;;;4999461;28;20692;-51
2021/08/09 07:48:40;;;;;;;1.57;1.33;;;33.30;50.00;;;;;;5004044;28;20454;-51
2021/08/09 07:51:06;;;;;;;2.07;1.13;;;32.40;50.00;;;;;;4999268;28;20524;-51
2021/08/09 07:53:31;;;;;;;2.10;1.83;;;33.30;48.80;;;;;;5004730;28;20552;-53
2021/08/09 07:55:57;;;;;;;3.00;1.43;;;33.30;48.70;;;;;;5005532;28;20206;-53
2021/08/09 07:58:23;;;;;;;3.10;2.80;;;33.20;49.10;;;;;;5011628;28;20183;-53
2021/08/09 08:00:51;;;;;;;2.70;1.20;;;33.60;48.00;;;;;;5007427;28;20455;-52
2021/08/09 08:03:16;;;;;;;2.33;1.30;;;33.90;47.60;;;;;;5010525;28;20554;-51
2021/08/09 08:05:42;;;;;;;1.43;1.33;;;33.90;47.20;;;;;;5004471;28;20462;-51
2021/08/09 08:08:10;;;;;;;1.87;1.43;;;33.90;47.30;;;;;;5006159;28;20182;-51
2021/08/09 08:10:36;;;;;;;2.93;1.80;;;34.60;46.30;;;;;;5002680;28;20575;-51
2021/08/09 08:13:02;;;;;;;1.50;1.30;;;35.30;46.00;;;;;;5009052;28;20930;-52
2021/08/09 08:15:28;;;;;;;2.07;1.50;;;34.90;43.90;;;;;;5002794;28;20486;-51
2021/08/09 08:17:53;;;;;;;1.30;1.20;;;34.90;44.60;;;;;;5003782;28;20269;-52
2021/08/09 08:20:19;;;;;;;1.87;1.40;;;33.80;45.30;;;;;;5002226;28;20543;-52
2021/08/09 08:22:45;;;;;;;1.40;1.30;;;34.00;45.20;;;;;;5004788;28;20608;-51
2021/08/09 08:25:11;;;;;;;1.47;1.37;;;34.50;45.00;;;;;;5001570;28;20187;-51
2021/08/09 08:27:38;;;;;;;1.20;1.10;;;34.00;45.10;;;;;;5002870;28;20210;-51
2021/08/09 08:30:05;;;;;;;1.90;1.10;;;33.60;46.10;;;;;;5002552;28;20500;-51
2021/08/09 08:32:31;;;;;;;2.40;1.20;;;33.70;45.80;;;;;;5007914;28;20426;-50
2021/08/09 08:34:57;;;;;;;2.33;0.97;;;33.40;45.90;;;;;;5001695;28;20847;-51
2021/08/09 08:37:22;;;;;;;1.77;1.30;;;33.90;43.50;;;;;;5003615;28;20484;-52
2021/08/09 08:39:48;;;;;;;2.13;1.23;;;33.10;43.70;;;;;;5010892;28;20182;-49
2021/08/09 08:42:14;;;;;;;1.60;1.03;;;33.90;43.50;;;;;;4999549;28;20179;-50
2021/08/09 08:44:43;;;;;;;1.27;1.17;;;34.40;41.90;;;;;;5001036;28;20267;-48
2021/08/09 08:47:11;;;;;;;2.37;2.17;;;35.10;41.60;;;;;;4998830;28;20556;-49
2021/08/09 08:49:38;;;;;;;14.00;5.53;;;35.10;40.40;;;;;;4999115;28;20434;-49
2021/08/09 08:52:05;;;;;;;2.87;1.83;;;34.60;41.10;;;;;;5005228;28;20537;-51
2021/08/09 08:54:31;;;;;;;2.73;1.70;;;35.80;40.30;;;;;;5008776;28;20453;-51
2021/08/09 08:56:58;;;;;;;8.33;6.63;;;37.00;38.80;;;;;;5008604;28;20464;-49
2021/08/09 08:59:23;;;;;;;7.37;2.30;;;37.00;37.70;;;;;;5002866;28;20599;-50
2021/08/09 09:01:51;;;;;;;3.93;3.10;;;37.20;37.80;;;;;;5004672;28;20896;-52
2021/08/09 09:04:20;;;;;;;1.37;0.90;;;36.80;37.10;;;;;;5006330;28;20174;-51
2021/08/09 09:06:45;;;;;;;1.53;1.30;;;36.40;37.60;;;;;;4999068;28;20461;-51
2021/08/09 09:09:22;;;;;;;1.83;1.10;;;36.90;36.50;;;;;;5006828;28;20445;-50
2021/08/09 09:11:48;;;;;;;1.40;1.10;;;37.10;36.60;;;;;;4999801;28;20294;-51
2021/08/09 09:14:14;;;;;;;1.30;1.10;;;36.30;36.70;;;;;;5003237;28;20523;-51
2021/08/09 09:16:45;;;;;;;2.00;1.73;;;36.20;36.90;;;;;;5006591;28;20603;-51
2021/08/09 09:19:27;;;;;;;1.43;1.00;;;35.80;37.50;;;;;;5007026;28;20257;-51
2021/08/09 09:21:53;;;;;;;1.40;1.10;;;36.50;35.80;;;;;;5001828;28;20455;-51
2021/08/09 09:24:21;;;;;;;1.30;1.20;;;36.70;36.30;;;;;;5006223;28;20537;-51
2021/08/09 09:26:58;;;;;;;1.80;1.27;;;36.50;36.80;;;;;;5003629;28;20505;-51
2021/08/09 09:29:26;;;;;;;2.70;1.23;;;35.70;36.40;;;;;;5007310;28;20518;-51
2021/08/09 09:31:53;;;;;;;1.30;1.17;;;35.10;38.30;;;;;;5002641;28;20478;-51
2021/08/09 09:34:21;;;;;;;1.70;1.03;;;34.90;38.30;;;;;;4998817;28;20441;-50
2021/08/09 09:36:58;;;;;;;1.13;1.00;;;34.90;37.80;;;;;;5001586;28;20528;-51
2021/08/09 09:39:37;;;;;;;2.80;1.40;;;34.80;38.20;;;;;;4999403;28;20426;-52
2021/08/09 09:42:08;;;;;;;1.67;1.23;;;33.90;38.70;;;;;;5002535;28;20854;-51
2021/08/09 09:44:36;;;;;;;1.50;1.00;;;33.70;39.10;;;;;;5003298;28;20433;-50
2021/08/09 09:47:21;;;;;;;4.40;1.00;;;33.60;39.30;;;;;;5006380;28;20478;-50
2021/08/09 09:49:51;;;;;;;1.20;1.00;;;33.60;39.50;;;;;;5004495;28;20444;-51
2021/08/09 09:52:32;;;;;;;1.63;1.20;;;33.00;40.10;;;;;;4994077;28;20501;-52
2021/08/09 09:55:05;;;;;;;1.27;1.17;;;32.70;40.50;;;;;;4999710;28;20453;-49
2021/08/09 09:57:31;;;;;;;1.37;1.20;;;31.90;41.80;;;;;;5005321;28;20437;-51
2021/08/09 09:59:58;;;;;;;1.43;1.20;;;31.60;42.80;;;;;;5003862;28;20520;-51
2021/08/09 10:02:28;;;;;;;2.80;1.70;;;31.50;43.20;;;;;;5008670;28;20592;-51
2021/08/09 10:04:54;;;;;;;1.83;1.33;;;32.30;42.30;;;;;;4998373;28;20490;-51
2021/08/09 10:07:23;;;;;;;1.73;1.17;;;32.00;42.40;;;;;;5001707;28;20557;-50
2021/08/09 10:09:50;;;;;;;1.97;1.13;;;32.20;41.60;;;;;;5001765;28;20444;-51
2021/08/09 10:12:21;;;;;;;1.40;0.83;;;32.90;41.50;;;;;;5004821;28;20942;-50
2021/08/09 10:14:48;;;;;;;1.37;1.17;;;31.70;42.30;;;;;;4997754;28;21022;-49
2021/08/09 10:17:16;;;;;;;1.40;1.30;;;31.00;43.90;;;;;;4999645;28;20981;-49
2021/08/09 10:19:47;;;;;;;2.13;1.40;;;30.20;44.40;;;;;;4997630;28;20445;-49
2021/08/09 10:22:17;;;;;;;2.67;1.60;;;29.60;47.40;;;;;;5001273;28;20530;-48
2021/08/09 10:24:43;;;;;;;3.03;2.07;;;29.00;48.70;;;;;;5000046;28;20444;-48
2021/08/09 10:27:09;;;;;;;1.33;1.23;;;28.40;48.80;;;;;;4996712;28;20462;-49
2021/08/09 10:30:00;;;;;;;3.00;2.33;;;27.80;49.80;;;;;;4999010;28;20515;-48
2021/08/09 10:32:27;;;;;;;1.40;1.17;;;27.50;51.50;;;;;;4993963;28;20451;-48
2021/08/09 10:34:53;;;;;;;2.03;1.40;;;27.30;51.80;;;;;;4997448;28;20813;-48
2021/08/09 10:37:22;;;;;;;1.67;1.30;;;27.10;52.80;;;;;;4998714;28;20473;-49
2021/08/09 10:40:03;;;;;;;2.20;1.40;;;27.40;52.50;;;;;;5000836;28;20439;-48
2021/08/09 10:42:37;;;;;;;1.50;1.30;;;27.30;52.20;;;;;;5000819;28;20446;-48
2021/08/09 10:45:11;;;;;;;2.53;1.60;;;27.40;52.10;;;;;;4996589;28;20452;-50
2021/08/09 10:47:47;;;;;;;2.30;1.60;;;27.20;52.50;;;;;;5001683;28;20955;-49
2021/08/09 10:50:25;;;;;;;2.37;2.00;;;27.00;53.30;;;;;;4998572;28;20959;-49
2021/08/09 10:52:52;;;;;;;2.33;1.77;;;27.10;54.10;;;;;;5002941;28;20419;-49
2021/08/09 10:55:33;;;;;;;2.20;2.00;;;27.10;53.50;;;;;;4995867;28;20466;-48
2021/08/09 10:58:05;;;;;;;2.50;1.80;;;27.20;52.50;;;;;;5002708;28;20450;-49
2021/08/09 11:00:43;;;;;;;2.43;1.30;;;27.20;53.00;;;;;;4999259;28;21042;-49
2021/08/09 11:03:10;;;;;;;2.33;1.70;;;27.40;53.10;;;;;;4998123;28;20450;-49
2021/08/09 11:05:35;;;;;;;2.23;1.90;;;27.00;53.20;;;;;;5002893;28;20505;-50
2021/08/09 11:08:20;;;;;;;1.73;1.63;;;26.90;54.50;;;;;;4999141;28;20469;-50
2021/08/09 11:10:54;;;;;;;2.30;1.37;;;26.80;54.40;;;;;;5002761;28;20599;-51
2021/08/09 11:13:41;;;;;;;1.57;1.40;;;27.00;53.80;;;;;;5001935;28;20870;-51
2021/08/09 11:16:07;;;;;;;2.30;1.83;;;27.20;54.20;;;;;;4997642;28;20466;-50
2021/08/09 11:18:36;;;;;;;3.37;1.93;;;27.30;53.90;;;;;;5003641;28;20438;-50
2021/08/09 11:21:12;;;;;;;5.00;2.00;;;27.20;53.80;;;;;;5007141;28;20590;-49
2021/08/09 11:23:40;;;;;;;4.20;2.27;;;27.20;52.50;;;;;;5003718;28;20777;-51
2021/08/09 11:26:17;;;;;;;2.00;1.57;;;27.10;53.60;;;;;;4998349;28;20456;-50
2021/08/09 11:28:43;;;;;;;3.30;1.60;;;26.80;54.30;;;;;;5005004;28;20501;-50
2021/08/09 11:31:08;;;;;;;4.20;2.50;;;26.70;55.00;;;;;;5010282;28;20461;-50
2021/08/09 11:33:41;;;;;;;2.97;2.00;;;26.50;55.90;;;;;;5007236;28;20444;-51
2021/08/09 11:36:09;;;;;;;2.73;1.83;;;26.50;56.10;;;;;;4999253;28;20256;-49
2021/08/09 11:38:51;;;;;;;1.77;1.67;;;26.70;55.60;;;;;;4999958;28;20623;-49
2021/08/09 11:41:38;;;;;;;2.53;2.10;;;27.20;53.30;;;;;;4996669;28;20847;-49
2021/08/09 11:44:08;;;;;;;2.23;1.63;;;27.40;53.10;;;;;;4998531;28;20465;-50
2021/08/09 11:46:48;;;;;;;4.13;2.23;;;28.10;51.70;;;;;;5002604;28;20451;-51
2021/08/09 11:49:14;;;;;;;2.87;2.27;;;28.30;51.30;;;;;;5001564;28;20810;-50
2021/08/09 11:51:40;;;;;;;2.00;1.83;;;27.90;52.10;;;;;;5002530;28;20469;-50
2021/08/09 11:54:06;;;;;;;1.47;1.37;;;27.90;52.00;;;;;;4997131;28;20971;-49
2021/08/09 11:56:34;;;;;;;2.50;2.17;;;27.40;51.30;;;;;;5003239;28;20813;-50
2021/08/09 11:59:10;;;;;;;2.07;1.80;;;27.30;51.80;;;;;;5001833;28;20503;-49
2021/08/09 12:01:37;;;;;;;2.07;1.50;;;27.30;51.80;;;;;;5001783;28;20481;-49
2021/08/09 12:04:12;;;;;;;2.70;1.60;;;27.30;50.90;;;;;;4998843;28;20998;-50
2021/08/09 12:06:55;;;;;;;3.33;1.53;;;27.20;52.20;;;;;;5001786;28;20456;-49
2021/08/09 12:09:25;;;;;;;2.73;1.93;;;27.00;52.50;;;;;;5004291;28;20462;-50
2021/08/09 12:12:02;;;;;;;1.80;1.60;;;27.00;51.50;;;;;;5002524;28;20998;-49
2021/08/09 12:14:28;;;;;;;2.27;1.57;;;27.10;52.20;;;;;;4999942;28;20533;-50
2021/08/09 12:16:59;;;;;;;3.43;1.30;;;27.30;50.80;;;;;;5001196;28;20449;-49
2021/08/09 12:19:51;;;;;;;1.77;1.67;;;27.20;50.50;;;;;;5001681;28;20430;-50
2021/08/09 12:22:19;;;;;;;2.20;1.60;;;27.10;51.30;;;;;;5000203;28;21094;-50
2021/08/09 12:25:04;;;;;;;2.20;1.57;;;27.20;51.80;;;;;;5004439;28;20453;-50
2021/08/09 12:27:31;;;;;;;1.90;1.50;;;27.00;51.80;;;;;;5003464;28;21054;-50
2021/08/09 12:30:06;;;;;;;4.63;4.23;;;27.00;50.90;;;;;;4996937;28;20946;-50
2021/08/09 12:32:37;;;;;;;5.27;2.10;;;26.90;51.50;;;;;;5006380;28;20433;-49
2021/08/09 12:35:05;;;;;;;2.20;2.00;;;26.70;51.10;;;;;;5000067;28;21254;-50
2021/08/09 12:40:10;;;;;;;3.30;1.83;;;26.70;50.60;;;;;;5331030;23;20497;-56
2021/08/09 12:42:36;;;;;;;2.20;2.10;;;26.80;51.20;;;;;;4971921;28;20469;-55
2021/08/09 12:45:02;;;;;;;3.87;2.00;;;26.80;51.30;;;;;;4986740;28;20451;-53
2021/08/09 12:47:27;;;;;;;2.90;2.33;;;26.70;51.50;;;;;;4956101;28;20187;-55
2021/08/09 12:49:53;;;;;;;1.60;1.50;;;26.70;51.80;;;;;;4951398;28;20454;-55
2021/08/09 12:52:18;;;;;;;2.30;2.13;;;26.80;50.70;;;;;;4957752;28;20192;-55
2021/08/09 12:54:44;;;;;;;1.57;1.33;;;26.90;50.50;;;;;;4951146;28;20287;-55
2021/08/09 12:57:12;;;;;;;2.40;1.40;;;26.90;51.30;;;;;;4958494;28;20594;-56